createdAt,value
2022-09-20T00:00:12.261Z,12.83
2022-09-20T00:02:40.210Z,12.83
2022-09-20T00:05:07.543Z,12.84
2022-09-20T00:07:34.248Z,12.82
2022-09-20T00:10:00.962Z,12.84
2022-09-20T00:12:27.536Z,12.81
2022-09-20T00:14:54.022Z,12.81
2022-09-20T00:17:20.686Z,12.78
2022-09-20T00:19:48.632Z,12.78
2022-09-20T00:22:15.238Z,12.81
2022-09-20T00:24:45.578Z,12.83
2022-09-20T00:27:14.886Z,12.83
2022-09-20T00:29:41.434Z,12.83
2022-09-20T00:32:08.181Z,12.82
2022-09-20T00:34:34.745Z,12.80
2022-09-20T00:37:02.790Z,12.82
2022-09-20T00:39:30.107Z,12.77
2022-09-20T00:41:56.891Z,12.76
2022-09-20T00:44:53.706Z,12.82
2022-09-20T00:47:27.698Z,12.77
2022-09-20T00:49:59.686Z,12.78
2022-09-20T00:52:29.689Z,12.76
2022-09-20T00:54:58.488Z,12.77
2022-09-20T00:57:25.750Z,12.75
2022-09-20T00:59:53.857Z,12.75
2022-09-20T01:02:25.442Z,12.80
2022-09-20T01:04:52.465Z,12.74
2022-09-20T01:07:22.117Z,12.78
2022-09-20T01:09:50.355Z,12.80
2022-09-20T01:12:21.692Z,12.77
2022-09-20T01:14:51.413Z,12.75
2022-09-20T01:17:19.653Z,12.76
2022-09-20T01:20:00.600Z,12.76
2022-09-20T01:22:37.255Z,12.75
2022-09-20T01:25:11.666Z,12.77
2022-09-20T01:27:45.035Z,12.74
2022-09-20T01:30:16.508Z,12.73
2022-09-20T01:32:56.920Z,12.73
2022-09-20T01:35:25.671Z,12.74
2022-09-20T01:38:07.458Z,12.75
2022-09-20T01:40:42.431Z,12.73
2022-09-20T01:43:19.417Z,12.72
2022-09-20T01:45:48.561Z,12.70
2022-09-20T01:48:23.254Z,12.60
2022-09-20T01:51:10.132Z,12.63
2022-09-20T01:53:59.795Z,12.66
2022-09-20T01:56:52.497Z,12.63
2022-09-20T01:59:51.970Z,12.63
2022-09-20T02:02:43.699Z,12.55
2022-09-20T02:05:34.831Z,12.58
2022-09-20T02:08:29.653Z,12.55
2022-09-20T02:11:12.459Z,12.52
2022-09-20T02:14:21.797Z,12.54
2022-09-20T02:16:55.395Z,12.54
2022-09-20T02:19:33.980Z,12.54
2022-09-20T02:22:18.171Z,12.54
2022-09-20T02:24:53.264Z,12.54
2022-09-20T02:27:26.721Z,12.54
2022-09-20T02:30:09.143Z,12.49
2022-09-20T02:32:54.477Z,12.49
2022-09-20T02:35:33.646Z,12.49
2022-09-20T02:38:12.532Z,12.47
2022-09-20T02:41:05.686Z,12.50
2022-09-20T02:43:38.124Z,12.50
2022-09-20T02:46:13.683Z,12.50
2022-09-20T02:48:49.682Z,12.53
2022-09-20T02:51:21.941Z,12.49
2022-09-20T02:53:51.821Z,12.55
2022-09-20T02:56:25.269Z,12.52
2022-09-20T02:58:59.719Z,12.52
2022-09-20T03:01:39.533Z,12.54
2022-09-20T03:04:23.322Z,12.48
2022-09-20T03:06:58.451Z,12.47
2022-09-20T03:09:33.964Z,12.49
2022-09-20T03:12:12.058Z,12.49
2022-09-20T03:14:46.663Z,12.48
2022-09-20T03:17:22.265Z,12.46
2022-09-20T03:20:05.342Z,12.41
2022-09-20T03:22:42.496Z,12.42
2022-09-20T03:25:46.060Z,12.44
2022-09-20T03:28:33.994Z,12.41
2022-09-20T03:31:08.456Z,12.42
2022-09-20T03:33:43.877Z,12.36
2022-09-20T03:36:29.824Z,12.41
2022-09-20T03:39:27.869Z,12.42
2022-09-20T03:42:08.623Z,12.43
2022-09-20T03:45:02.201Z,12.41
2022-09-20T03:47:49.840Z,12.42
2022-09-20T03:50:45.022Z,12.37
2022-09-20T03:53:33.491Z,12.41
2022-09-20T03:56:18.842Z,12.42
2022-09-20T03:59:03.689Z,12.40
2022-09-20T04:01:49.239Z,12.37
2022-09-20T04:04:28.070Z,12.36
2022-09-20T04:07:08.897Z,12.36
2022-09-20T04:09:56.814Z,12.35
2022-09-20T04:12:30.356Z,12.35
2022-09-20T04:15:09.289Z,12.34
2022-09-20T04:17:47.191Z,12.33
2022-09-20T04:20:19.154Z,12.34
2022-09-20T04:22:49.685Z,12.30
2022-09-20T04:25:22.421Z,12.33
2022-09-20T04:27:51.705Z,12.34
2022-09-20T04:30:20.216Z,12.33
2022-09-20T04:32:56.174Z,12.35
2022-09-20T04:35:35.600Z,12.30
2022-09-20T04:38:03.761Z,12.30
2022-09-20T04:40:51.505Z,12.33
2022-09-20T04:43:42.612Z,12.32
2022-09-20T04:46:43.396Z,12.33
2022-09-20T04:49:48.533Z,12.32
2022-09-20T04:52:40.442Z,12.32
2022-09-20T04:55:49.854Z,12.31
2022-09-20T04:58:46.710Z,12.25
2022-09-20T05:01:59.755Z,12.23
2022-09-20T05:04:56.382Z,12.22
2022-09-20T05:08:13.641Z,12.22
2022-09-20T05:11:20.897Z,12.23
2022-09-20T05:14:03.851Z,12.21
2022-09-20T05:16:47.599Z,12.22
2022-09-20T05:19:28.085Z,12.21
2022-09-20T05:22:22.638Z,12.22
2022-09-20T05:25:15.985Z,12.19
2022-09-20T05:27:48.334Z,12.20
2022-09-20T05:30:20.523Z,12.21
2022-09-20T05:32:55.847Z,12.21
2022-09-20T05:35:29.216Z,12.26
2022-09-20T05:38:05.566Z,12.27
2022-09-20T05:40:41.694Z,12.24
2022-09-20T05:43:11.167Z,12.26
2022-09-20T05:46:03.508Z,12.24
2022-09-20T05:48:40.216Z,12.24
2022-09-20T05:51:16.333Z,12.27
2022-09-20T05:54:23.815Z,12.27
2022-09-20T05:56:59.847Z,12.29
2022-09-20T05:59:40.160Z,12.37
2022-09-20T06:02:33.627Z,12.40
2022-09-20T06:05:08.559Z,12.31
2022-09-20T06:08:00.769Z,12.42
2022-09-20T06:10:42.634Z,12.39
2022-09-20T06:13:23.528Z,12.40
2022-09-20T06:15:57.590Z,12.45
2022-09-20T06:18:34.396Z,12.44
2022-09-20T06:21:13.850Z,12.50
2022-09-20T06:23:40.872Z,12.60
2022-09-20T06:26:13.514Z,12.62
2022-09-20T06:28:42.697Z,12.65
2022-09-20T06:31:10.442Z,12.67
2022-09-20T06:33:44.877Z,12.75
2022-09-20T06:36:16.511Z,12.80
2022-09-20T06:38:55.497Z,12.82
2022-09-20T06:41:22.533Z,12.80
2022-09-20T06:43:49.048Z,12.72
2022-09-20T06:46:15.744Z,12.71
2022-09-20T06:48:43.724Z,12.62
2022-09-20T06:51:10.386Z,12.59
2022-09-20T06:53:40.754Z,12.53
2022-09-20T06:56:09.239Z,12.51
2022-09-20T06:58:35.968Z,12.50
2022-09-20T07:01:02.811Z,12.48
2022-09-20T07:03:29.469Z,12.49
2022-09-20T07:05:57.654Z,12.47
2022-09-20T07:08:27.411Z,12.52
2022-09-20T07:10:53.991Z,12.54
2022-09-20T07:13:23.409Z,12.61
2022-09-20T07:15:51.322Z,12.80
2022-09-20T07:18:17.889Z,13.00
2022-09-20T07:20:44.431Z,13.14
2022-09-20T07:23:13.224Z,13.37
2022-09-20T07:25:39.930Z,13.60
2022-09-20T07:28:06.441Z,13.76
2022-09-20T07:30:33.076Z,13.87
2022-09-20T07:32:59.607Z,13.95
2022-09-20T07:35:26.193Z,14.06
2022-09-20T07:37:56.941Z,14.16
2022-09-20T07:40:24.899Z,14.18
2022-09-20T07:42:56.000Z,14.19
2022-09-20T07:45:22.911Z,14.30
2022-09-20T07:47:49.459Z,14.30
2022-09-20T07:50:16.144Z,14.44
2022-09-20T07:52:42.738Z,14.63
2022-09-20T07:55:09.335Z,14.76
2022-09-20T07:57:38.138Z,14.88
2022-09-20T08:00:07.747Z,14.97
2022-09-20T08:02:39.161Z,14.97
2022-09-20T08:05:06.081Z,15.00
2022-09-20T08:07:32.666Z,15.19
2022-09-20T08:09:59.337Z,15.59
2022-09-20T08:15:14.185Z,19.72
2022-09-20T08:17:40.841Z,23.05
2022-09-20T08:20:08.425Z,22.26
2022-09-20T08:22:35.198Z,20.19
2022-09-20T08:25:01.787Z,23.23
2022-09-20T08:27:28.514Z,25.85
2022-09-20T08:29:55.178Z,27.21
2022-09-20T08:32:23.265Z,27.99
2022-09-20T08:34:50.035Z,28.95
2022-09-20T08:37:16.616Z,29.37
2022-09-20T08:39:59.164Z,29.87
2022-09-20T08:42:33.665Z,30.42
2022-09-20T08:45:05.229Z,30.63
2022-09-20T08:47:36.463Z,30.33
2022-09-20T08:50:09.532Z,30.51
2022-09-20T08:52:38.820Z,30.82
2022-09-20T08:55:14.775Z,30.57
2022-09-20T08:57:41.497Z,30.17
2022-09-20T09:00:16.082Z,31.48
2022-09-20T09:02:44.562Z,31.36
2022-09-20T09:05:28.987Z,29.70
2022-09-20T09:07:55.695Z,29.56
2022-09-20T09:10:22.290Z,25.53
2022-09-20T09:12:50.311Z,28.06
2022-09-20T09:15:25.632Z,29.92
2022-09-20T09:17:54.774Z,30.61
2022-09-20T09:20:23.762Z,30.87
2022-09-20T09:22:59.735Z,32.05
2022-09-20T09:25:27.209Z,32.02
2022-09-20T09:27:56.398Z,32.18
2022-09-20T09:30:25.984Z,32.12
2022-09-20T09:33:25.925Z,29.20
2022-09-20T09:35:54.974Z,25.20
2022-09-20T09:38:23.405Z,23.17
2022-09-20T09:40:52.166Z,21.97
2022-09-20T09:43:25.046Z,21.64
2022-09-20T09:45:51.812Z,21.17
2022-09-20T09:48:20.505Z,20.74
2022-09-20T09:50:48.620Z,20.06
2022-09-20T09:53:18.614Z,19.41
2022-09-20T09:56:14.171Z,18.98
2022-09-20T09:58:55.605Z,18.51
2022-09-20T10:01:33.580Z,18.26
2022-09-20T10:04:06.955Z,18.37
2022-09-20T10:06:41.785Z,18.62
2022-09-20T10:09:22.807Z,19.17
2022-09-20T10:12:02.473Z,19.85
2022-09-20T10:14:49.978Z,19.96
2022-09-20T10:17:33.153Z,19.73
2022-09-20T10:20:14.270Z,19.45
2022-09-20T10:23:26.504Z,19.80
2022-09-20T10:25:45.029Z,19.34
2022-09-20T10:28:26.963Z,18.93
2022-09-20T10:31:07.463Z,18.36
2022-09-20T10:33:41.333Z,17.83
2022-09-20T10:36:20.145Z,17.53
2022-09-20T10:38:57.325Z,17.23
2022-09-20T10:41:38.192Z,16.96
2022-09-20T10:44:20.017Z,16.75
2022-09-20T10:46:56.623Z,16.49
2022-09-20T10:49:32.303Z,16.32
2022-09-20T10:52:23.533Z,16.16
2022-09-20T10:55:04.090Z,16.01
2022-09-20T10:57:48.374Z,15.91
2022-09-20T11:00:21.348Z,15.81
2022-09-20T11:03:03.231Z,15.76
2022-09-20T11:05:37.654Z,15.70
2022-09-20T11:08:11.813Z,15.68
2022-09-20T11:10:45.286Z,15.71
2022-09-20T11:13:22.133Z,15.78
2022-09-20T11:15:54.865Z,15.84
2022-09-20T11:18:24.420Z,15.88
2022-09-20T11:20:58.355Z,15.94
2022-09-20T11:23:32.909Z,16.02
2022-09-20T11:26:08.810Z,16.10
2022-09-20T11:28:39.192Z,16.23
2022-09-20T11:31:10.603Z,16.43
2022-09-20T11:33:44.417Z,16.63
2022-09-20T11:36:16.988Z,16.84
2022-09-20T11:38:53.055Z,17.08
2022-09-20T11:41:26.471Z,17.70
2022-09-20T11:43:57.236Z,18.57
2022-09-20T11:46:29.500Z,19.05
2022-09-20T11:49:00.749Z,19.20
2022-09-20T11:51:58.756Z,19.37
2022-09-20T11:54:52.475Z,19.37
2022-09-20T11:57:21.786Z,19.63
2022-09-20T11:59:51.802Z,19.94
2022-09-20T12:02:23.782Z,19.87
2022-09-20T12:04:51.258Z,19.69
2022-09-20T12:07:22.799Z,19.57
2022-09-20T12:09:55.768Z,19.51
2022-09-20T12:12:35.967Z,19.54
2022-09-20T12:15:05.646Z,19.34
2022-09-20T12:18:09.237Z,19.54
2022-09-20T12:20:59.399Z,19.56
2022-09-20T12:24:01.377Z,19.74
2022-09-20T12:26:53.355Z,19.86
2022-09-20T12:30:13.588Z,20.04
2022-09-20T12:32:57.733Z,20.15
2022-09-20T12:35:59.463Z,20.20
2022-09-20T12:38:48.529Z,19.80
2022-09-20T12:41:23.093Z,19.50
2022-09-20T12:44:02.125Z,19.40
2022-09-20T12:46:52.482Z,19.72
2022-09-20T12:49:37.210Z,19.48
2022-09-20T12:52:04.115Z,19.27
2022-09-20T12:54:30.861Z,18.98
2022-09-20T12:57:17.724Z,18.72
2022-09-20T12:59:54.753Z,18.10
2022-09-20T13:02:56.418Z,17.78
2022-09-20T13:05:39.518Z,17.36
2022-09-20T13:08:14.922Z,17.10
2022-09-20T13:10:46.984Z,16.96
2022-09-20T13:13:25.195Z,17.14
2022-09-20T13:15:53.261Z,16.94
2022-09-20T13:18:21.480Z,17.07
2022-09-20T13:20:50.142Z,17.23
2022-09-20T13:23:22.335Z,17.40
2022-09-20T13:25:49.975Z,17.70
2022-09-20T13:28:26.891Z,18.08
2022-09-20T13:31:29.036Z,18.27
2022-09-20T13:34:12.760Z,18.36
2022-09-20T13:36:41.470Z,18.58
2022-09-20T13:39:08.178Z,18.58
2022-09-20T13:41:34.891Z,18.70
2022-09-20T13:44:02.146Z,18.79
2022-09-20T13:46:30.293Z,18.98
2022-09-20T13:49:14.414Z,19.08
2022-09-20T13:51:42.397Z,18.93
2022-09-20T13:54:20.728Z,18.95
2022-09-20T13:56:47.583Z,18.88
2022-09-20T13:59:18.979Z,18.90
2022-09-20T14:01:49.966Z,19.05
2022-09-20T14:04:18.756Z,19.07
2022-09-20T14:06:47.042Z,19.21
2022-09-20T14:09:21.259Z,19.34
2022-09-20T14:11:48.755Z,19.12
2022-09-20T14:14:21.272Z,18.95
2022-09-20T14:16:50.067Z,18.90
2022-09-20T14:19:19.704Z,18.90
2022-09-20T14:21:48.457Z,18.82
2022-09-20T14:24:30.228Z,18.74
2022-09-20T14:27:02.845Z,18.68
2022-09-20T14:29:29.806Z,18.65
2022-09-20T14:31:58.385Z,18.66
2022-09-20T14:34:25.441Z,18.64
2022-09-20T14:37:05.179Z,18.64
2022-09-20T14:39:32.371Z,18.43
2022-09-20T14:41:59.053Z,18.38
2022-09-20T14:44:31.004Z,18.49
2022-09-20T14:46:57.894Z,18.84
2022-09-20T14:49:33.213Z,18.50
2022-09-20T14:52:35.673Z,18.57
2022-09-20T14:55:16.730Z,18.37
2022-09-20T14:57:45.085Z,18.47
2022-09-20T15:00:13.730Z,18.44
2022-09-20T15:02:43.523Z,18.23
2022-09-20T15:05:18.580Z,18.11
2022-09-20T15:07:46.906Z,17.93
2022-09-20T15:10:14.026Z,17.83
2022-09-20T15:12:40.726Z,17.72
2022-09-20T15:15:11.735Z,17.62
2022-09-20T15:17:39.152Z,17.53
2022-09-20T15:20:06.921Z,17.41
2022-09-20T15:22:33.806Z,17.35
2022-09-20T15:25:01.713Z,17.36
2022-09-20T15:27:28.606Z,17.31
2022-09-20T15:29:55.227Z,17.29
2022-09-20T15:32:21.840Z,17.33
2022-09-20T15:34:48.385Z,17.23
2022-09-20T15:37:15.013Z,17.09
2022-09-20T15:39:41.523Z,17.16
2022-09-20T15:42:09.623Z,17.20
2022-09-20T15:44:36.202Z,17.16
2022-09-20T15:47:02.893Z,17.17
2022-09-20T15:49:29.888Z,17.18
2022-09-20T15:51:56.536Z,17.17
2022-09-20T15:54:23.058Z,17.16
2022-09-20T15:56:49.662Z,17.11
2022-09-20T15:59:17.596Z,17.05
2022-09-20T16:01:45.233Z,17.02
2022-09-20T16:04:13.079Z,16.96
2022-09-20T16:06:41.976Z,16.87
2022-09-20T16:09:08.918Z,16.88
2022-09-20T16:11:36.435Z,16.86
2022-09-20T16:14:03.230Z,16.82
2022-09-20T16:16:38.924Z,16.82
2022-09-20T16:19:07.096Z,16.78
2022-09-20T16:21:34.750Z,16.88
2022-09-20T16:24:01.755Z,16.76
2022-09-20T16:26:29.314Z,16.85
2022-09-20T16:28:55.962Z,16.86
2022-09-20T16:31:34.298Z,16.79
2022-09-20T16:34:01.542Z,16.76
2022-09-20T16:36:28.133Z,16.73
2022-09-20T16:38:54.914Z,16.59
2022-09-20T16:41:21.634Z,16.46
2022-09-20T16:43:48.403Z,16.31
2022-09-20T16:46:15.008Z,16.18
2022-09-20T16:48:43.031Z,16.08
2022-09-20T16:51:09.662Z,15.94
2022-09-20T16:53:36.208Z,15.86
2022-09-20T16:56:03.033Z,15.71
2022-09-20T16:58:30.223Z,15.68
2022-09-20T17:01:03.701Z,15.55
2022-09-20T17:03:30.392Z,15.48
2022-09-20T17:06:02.231Z,15.42
2022-09-20T17:08:28.781Z,15.28
2022-09-20T17:10:59.042Z,15.22
2022-09-20T17:13:25.684Z,15.06
2022-09-20T17:16:00.893Z,15.02
2022-09-20T17:18:27.570Z,14.90
2022-09-20T17:20:54.226Z,14.86
2022-09-20T17:23:22.205Z,14.78
2022-09-20T17:25:48.843Z,14.74
2022-09-20T17:28:15.408Z,14.56
2022-09-20T17:30:42.132Z,14.50
2022-09-20T17:33:08.739Z,14.40
2022-09-20T17:35:35.333Z,14.40
2022-09-20T17:38:01.953Z,14.36
2022-09-20T17:40:29.986Z,14.32
2022-09-20T17:42:56.969Z,14.23
2022-09-20T17:45:23.545Z,14.17
2022-09-20T17:47:50.151Z,14.05
2022-09-20T17:50:16.720Z,13.99
2022-09-20T17:52:45.515Z,13.96
2022-09-20T17:55:12.088Z,13.88
2022-09-20T17:57:40.074Z,13.84
2022-09-20T18:00:08.343Z,13.84
2022-09-20T18:02:35.089Z,13.88
2022-09-20T18:05:01.631Z,13.84
2022-09-20T18:07:28.324Z,13.85
2022-09-20T18:09:55.006Z,13.74
2022-09-20T18:12:21.692Z,13.79
2022-09-20T18:14:49.633Z,13.74
2022-09-20T18:17:16.245Z,13.70
2022-09-20T18:19:42.882Z,13.68
2022-09-20T18:22:09.483Z,13.61
2022-09-20T18:24:36.114Z,13.54
2022-09-20T18:27:02.759Z,13.50
2022-09-20T18:29:29.572Z,13.44
2022-09-20T18:31:58.111Z,13.40
2022-09-20T18:34:26.226Z,13.30
2022-09-20T18:36:54.464Z,13.31
2022-09-20T18:39:21.689Z,13.26
2022-09-20T18:41:49.155Z,13.19
2022-09-20T18:44:16.376Z,13.12
2022-09-20T18:46:43.046Z,13.12
2022-09-20T18:49:12.608Z,13.06
2022-09-20T18:51:40.350Z,13.01
2022-09-20T18:54:07.695Z,12.94
2022-09-20T18:56:35.874Z,12.91
2022-09-20T18:59:05.072Z,12.85
2022-09-20T19:01:58.225Z,12.86
2022-09-20T19:04:36.176Z,12.80
2022-09-20T19:07:12.083Z,12.68
2022-09-20T19:09:46.142Z,12.67
2022-09-20T19:12:20.907Z,12.59
2022-09-20T19:15:01.176Z,12.43
2022-09-20T19:17:51.461Z,12.36
2022-09-20T19:20:28.198Z,12.30
2022-09-20T19:23:04.078Z,12.23
2022-09-20T19:25:37.231Z,12.14
2022-09-20T19:28:04.489Z,12.09
2022-09-20T19:30:31.777Z,12.01
2022-09-20T19:32:58.971Z,11.90
2022-09-20T19:35:35.635Z,11.88
2022-09-20T19:38:10.971Z,11.83
2022-09-20T19:40:45.028Z,11.82
2022-09-20T19:43:32.923Z,11.66
2022-09-20T19:46:09.950Z,11.65
2022-09-20T19:48:38.727Z,11.57
2022-09-20T19:51:10.861Z,11.53
2022-09-20T19:53:38.479Z,11.47
2022-09-20T19:56:21.775Z,11.45
2022-09-20T19:58:49.083Z,11.38
2022-09-20T20:01:16.279Z,11.36
2022-09-20T20:03:46.162Z,11.34
2022-09-20T20:06:26.825Z,11.34
2022-09-20T20:09:02.324Z,11.29
2022-09-20T20:11:39.596Z,11.24
2022-09-20T20:14:20.169Z,11.28
2022-09-20T20:17:01.887Z,11.20
2022-09-20T20:19:54.217Z,11.22
2022-09-20T20:22:55.892Z,11.14
2022-09-20T20:25:28.292Z,11.07
2022-09-20T20:27:55.034Z,10.93
2022-09-20T20:30:21.602Z,10.97
2022-09-20T20:32:48.281Z,10.89
2022-09-20T20:35:15.049Z,10.84
2022-09-20T20:37:41.753Z,10.79
2022-09-20T20:40:10.711Z,10.80
2022-09-20T20:42:37.453Z,10.77
2022-09-20T20:45:04.869Z,10.78
2022-09-20T20:47:31.570Z,10.73
2022-09-20T20:49:58.167Z,10.79
2022-09-20T20:52:24.767Z,10.80
2022-09-20T20:54:51.327Z,10.65
2022-09-20T20:57:19.442Z,10.67
2022-09-20T20:59:46.032Z,10.67
2022-09-20T21:02:12.546Z,10.56
2022-09-20T21:04:39.236Z,10.56
2022-09-20T21:07:05.861Z,10.59
2022-09-20T21:09:32.555Z,10.57
2022-09-20T21:11:59.218Z,10.56
2022-09-20T21:14:27.072Z,10.54
2022-09-20T21:16:53.637Z,10.49
2022-09-20T21:19:20.208Z,10.49
2022-09-20T21:21:47.182Z,10.49
2022-09-20T21:24:15.830Z,10.46
2022-09-20T21:26:42.714Z,10.35
2022-09-20T21:29:10.968Z,10.35
2022-09-20T21:31:41.096Z,10.30
2022-09-20T21:34:09.187Z,10.25
2022-09-20T21:36:37.474Z,10.23
2022-09-20T21:39:04.432Z,10.31
2022-09-20T21:41:32.902Z,10.23
2022-09-20T21:44:01.363Z,10.24
2022-09-20T21:46:29.398Z,10.22
2022-09-20T21:48:59.053Z,10.15
2022-09-20T21:51:33.258Z,10.12
2022-09-20T21:54:06.835Z,10.25
2022-09-20T21:56:35.789Z,10.05
2022-09-20T21:59:03.327Z,10.25
2022-09-20T22:01:31.232Z,10.21
2022-09-20T22:03:59.479Z,10.15
2022-09-20T22:06:28.019Z,10.19
2022-09-20T22:08:56.326Z,10.12
2022-09-20T22:11:22.925Z,10.10
2022-09-20T22:13:51.675Z,10.12
2022-09-20T22:16:20.851Z,10.10
2022-09-20T22:18:47.730Z,10.04
2022-09-20T22:21:17.727Z,10.09
2022-09-20T22:23:44.771Z,10.04
2022-09-20T22:26:13.309Z,10.10
2022-09-20T22:28:40.717Z,10.13
2022-09-20T22:31:11.030Z,10.18
2022-09-20T22:33:42.146Z,10.23
2022-09-20T22:36:10.112Z,10.42
2022-09-20T22:38:38.373Z,10.39
2022-09-20T22:41:05.195Z,10.46
2022-09-20T22:43:32.613Z,10.55
2022-09-20T22:46:02.595Z,10.55
2022-09-20T22:48:30.094Z,10.63
2022-09-20T22:50:59.125Z,10.64
2022-09-20T22:53:27.005Z,10.64
2022-09-20T22:56:01.922Z,10.62
2022-09-20T22:58:30.190Z,10.65
2022-09-20T23:01:04.142Z,10.70
2022-09-20T23:03:31.203Z,10.69
2022-09-20T23:05:57.991Z,10.72
2022-09-20T23:08:25.062Z,10.77
2022-09-20T23:11:01.132Z,10.78
2022-09-20T23:13:28.169Z,10.76
2022-09-20T23:15:54.969Z,10.80
2022-09-20T23:18:21.883Z,10.74
2022-09-20T23:20:48.825Z,10.81
2022-09-20T23:23:15.620Z,10.76
2022-09-20T23:25:42.430Z,10.76
2022-09-20T23:28:10.642Z,10.69
2022-09-20T23:30:37.399Z,10.68
2022-09-20T23:33:04.373Z,10.71
2022-09-20T23:35:31.174Z,10.70
2022-09-20T23:37:58.201Z,10.68
2022-09-20T23:40:24.951Z,10.63
2022-09-20T23:42:51.769Z,10.63
2022-09-20T23:45:20.074Z,10.55
2022-09-20T23:47:47.548Z,10.53
2022-09-20T23:50:14.427Z,10.46
2022-09-20T23:52:41.253Z,10.45
2022-09-20T23:55:08.502Z,10.41
2022-09-20T23:57:35.553Z,10.36
